Terminal Aerodrome Forecast
Issued by NWS

Home | Current Version | Previous Version | Text Only | Print | Product List | Glossary On
Versions: 1 2 3 4 5 6 7 8 9 10 11 12 13 14 15 16
000
FTAK31 PAJN 162300
TAFASI
TAF
PASI 162322Z 1700/1724 11010KT P6SM SCT060 BKN150
     FM170800 09010G18KT P6SM -RA OVC040
     FM171500 11010G18KT 6SM -RA BR OVC025
     FM172100 14008G15KT 5SM -RA BR OVC020=

USA.gov is the U.S. government's official web portal to all federal, state and local government web resources and services.